Time;durP1;ratioP1;P1;durP2;ratioP2;P2;SDS_P1;SDS_P2;PMS_P1;PMS_P2;Temp;Humidity;BMP_temperature;BMP_pressure;BME280_temperature;BME280_humidity;BME280_pressure;Samples;Min_cycle;Max_cycle;Signal;HPM_P1;HPM_P2
2022/03/29 00:03:39;;;;;;;;;;;8.30;87.60;;;;;;10368012;28;84060;-50
2022/03/29 00:08:39;;;;;;;;;;;8.30;60.40;;;;;;10366217;28;86025;-52
2022/03/29 00:13:40;;;;;;;;;;;8.30;80.90;;;;;;10374717;28;84943;-49
2022/03/29 00:18:41;;;;;;;;;;;8.30;99.90;;;;;;10372295;28;84738;-47
2022/03/29 00:28:57;;;;;;;;;;;8.10;99.90;;;;;;10371403;28;84895;-53
2022/03/29 00:33:57;;;;;;;;;;;8.00;99.90;;;;;;10374549;28;85744;-52
2022/03/29 00:38:58;;;;;;;;;;;8.00;99.90;;;;;;10338008;28;85949;-52
2022/03/29 00:43:59;;;;;;;;;;;7.90;99.90;;;;;;10373254;28;85307;-47
2022/03/29 00:48:59;;;;;;;;;;;7.90;99.90;;;;;;10372450;28;84960;-46
2022/03/29 00:54:00;;;;;;;;;;;7.80;99.90;;;;;;10372485;28;88615;-46
2022/03/29 00:59:00;;;;;;;;;;;7.70;99.90;;;;;;10372506;28;84044;-46
2022/03/29 01:04:02;;;;;;;;;;;7.70;99.90;;;;;;10354776;28;84028;-50
2022/03/29 01:09:03;;;;;;;;;;;7.60;99.90;;;;;;10371693;28;84035;-47
2022/03/29 01:14:04;;;;;;;;;;;7.50;99.90;;;;;;10353859;28;85918;-48
2022/03/29 01:19:07;;;;;;;;;;;7.60;99.90;;;;;;10354107;28;84920;-47
2022/03/29 01:24:09;;;;;;;;;;;7.40;99.90;;;;;;10370900;28;84726;-49
2022/03/29 01:29:09;;;;;;;;;;;7.30;99.90;;;;;;10371532;28;84958;-48
2022/03/29 01:34:10;;;;;;;;;;;7.40;99.90;;;;;;10372137;28;84334;-47
2022/03/29 01:39:11;;;;;;;;;;;7.20;99.90;;;;;;10337099;28;86024;-47
2022/03/29 01:44:12;;;;;;;;;;;7.20;99.90;;;;;;10371997;28;84029;-47
2022/03/29 01:49:13;;;;;;;;;;;7.30;99.90;;;;;;10370741;28;84896;-46
2022/03/29 01:54:14;;;;;;;;;;;7.30;99.90;;;;;;10371060;28;84005;-49
2022/03/29 01:59:14;;;;;;;;;;;7.20;99.90;;;;;;10370399;28;84726;-47
2022/03/29 02:04:16;;;;;;;;;;;7.30;99.90;;;;;;10356587;28;84956;-47
2022/03/29 02:09:17;;;;;;;;;;;7.30;99.90;;;;;;10358032;28;85195;-47
2022/03/29 02:14:17;;;;;;;;;;;7.30;99.90;;;;;;10369675;28;84272;-45
2022/03/29 02:19:18;;;;;;;;;;;7.40;99.90;;;;;;10360724;28;84255;-57
2022/03/29 02:24:18;;;;;;;;;;;7.30;99.90;;;;;;10369984;28;84703;-47
2022/03/29 02:29:19;;;;;;;;;;;7.30;99.90;;;;;;10350428;28;85000;-47
2022/03/29 02:34:19;;;;;;;;;;;7.40;99.90;;;;;;10331411;28;87070;-54
2022/03/29 02:39:20;;;;;;;;;;;7.40;99.90;;;;;;10369748;28;84741;-51
2022/03/29 02:44:20;;;;;;;;;;;7.40;99.90;;;;;;10370291;28;84977;-48
2022/03/29 02:49:21;;;;;;;;;;;7.30;99.90;;;;;;10365213;28;84214;-49
2022/03/29 02:54:21;;;;;;;;;;;7.30;99.90;;;;;;10368691;28;84985;-51
2022/03/29 02:59:22;;;;;;;;;;;7.20;99.90;;;;;;10347536;28;84914;-47
2022/03/29 03:04:23;;;;;;;;;;;7.20;99.90;;;;;;10350449;28;84257;-47
2022/03/29 03:09:23;;;;;;;;;;;7.20;99.90;;;;;;10367219;28;84970;-52
2022/03/29 03:14:24;;;;;;;;;;;7.30;99.90;;;;;;10350660;28;86075;-48
2022/03/29 03:19:24;;;;;;;;;;;7.30;99.90;;;;;;10367559;28;84040;-47
2022/03/29 03:24:25;;;;;;;;;;;7.30;99.90;;;;;;10365897;28;85120;-47
2022/03/29 03:29:25;;;;;;;;;;;7.20;99.90;;;;;;10367011;28;84957;-47
2022/03/29 03:34:26;;;;;;;;;;;7.30;99.90;;;;;;10368526;28;84370;-49
2022/03/29 03:39:26;;;;;;;;;;;7.40;99.90;;;;;;10366638;28;85499;-47
2022/03/29 03:44:27;;;;;;;;;;;7.40;99.90;;;;;;10369476;28;84854;-54
2022/03/29 03:49:27;;;;;;;;;;;7.40;99.90;;;;;;10374642;28;84251;-46
2022/03/29 03:54:28;;;;;;;;;;;7.40;99.90;;;;;;10374458;28;84067;-46
2022/03/29 03:59:28;;;;;;;;;;;7.40;99.90;;;;;;10373593;28;84856;-47
2022/03/29 04:04:29;;;;;;;;;;;7.40;99.90;;;;;;10373567;28;85671;-44
2022/03/29 04:09:30;;;;;;;;;;;7.40;99.90;;;;;;10373879;28;84238;-48
2022/03/29 04:14:31;;;;;;;;;;;7.40;99.90;;;;;;10350113;28;84156;-48
2022/03/29 04:19:32;;;;;;;;;;;7.40;99.90;;;;;;10334028;28;86956;-47
2022/03/29 04:24:33;;;;;;;;;;;7.40;99.90;;;;;;10351402;28;84914;-48
2022/03/29 04:29:34;;;;;;;;;;;7.30;99.90;;;;;;10351740;28;84882;-51
2022/03/29 04:34:34;;;;;;;;;;;7.40;99.90;;;;;;10351424;28;83987;-48
2022/03/29 04:39:36;;;;;;;;;;;7.40;99.90;;;;;;10351249;28;84273;-47
2022/03/29 04:44:37;;;;;;;;;;;7.40;99.90;;;;;;10353685;28;84893;-47
2022/03/29 04:49:38;;;;;;;;;;;7.40;99.90;;;;;;10353449;28;84407;-45
2022/03/29 04:54:38;;;;;;;;;;;7.40;99.90;;;;;;10351183;28;84949;-53
2022/03/29 04:59:39;;;;;;;;;;;7.30;99.90;;;;;;10338534;28;84786;-48
2022/03/29 05:04:39;;;;;;;;;;;7.30;99.90;;;;;;10333900;28;84260;-48
2022/03/29 05:09:41;;;;;;;;;;;7.30;99.90;;;;;;10322527;28;84160;-45
2022/03/29 05:14:41;;;;;;;;;;;7.30;99.90;;;;;;10354030;28;84964;-50
2022/03/29 05:19:42;;;;;;;;;;;7.10;99.90;;;;;;10354963;28;84074;-54
2022/03/29 05:24:42;;;;;;;;;;;7.10;99.90;;;;;;10369658;28;84439;-45
2022/03/29 05:29:43;;;;;;;;;;;7.20;99.90;;;;;;10371127;28;84221;-46
2022/03/29 05:34:44;;;;;;;;;;;7.10;99.90;;;;;;10371693;28;85001;-47
2022/03/29 05:39:44;;;;;;;;;;;7.20;99.90;;;;;;10371139;28;84906;-45
2022/03/29 05:44:45;;;;;;;;;;;7.30;99.90;;;;;;10370418;28;85068;-46
2022/03/29 05:49:45;;;;;;;;;;;7.10;99.90;;;;;;10347343;28;84796;-49
2022/03/29 05:54:46;;;;;;;;;;;7.20;99.90;;;;;;10351068;28;85252;-50
2022/03/29 05:59:47;;;;;;;;;;;7.10;99.90;;;;;;10351070;28;84860;-45
2022/03/29 06:04:47;;;;;;;;;;;7.10;99.90;;;;;;10340351;28;86863;-46
2022/03/29 06:09:48;;;;;;;;;;;7.20;99.90;;;;;;10351890;28;84861;-51
2022/03/29 06:14:49;;;;;;;;;;;7.20;99.90;;;;;;10349570;28;84150;-48
2022/03/29 06:19:49;;;;;;;;;;;6.90;99.90;;;;;;10358868;28;84144;-49
2022/03/29 06:24:50;;;;;;;;;;;7.00;99.90;;;;;;10379029;22;85769;-47
2022/03/29 06:29:51;;;;;;;;;;;6.90;55.00;;;;;;10363914;28;84244;-47
2022/03/29 06:34:51;;;;;;;;;;;6.80;86.80;;;;;;10369464;28;84270;-48
2022/03/29 06:39:52;;;;;;;;;;;6.90;96.60;;;;;;10366956;28;84852;-52
2022/03/29 06:44:52;;;;;;;;;;;6.90;98.20;;;;;;10360747;28;84179;-49
2022/03/29 06:49:53;;;;;;;;;;;6.90;48.80;;;;;;10368459;28;84119;-50
2022/03/29 06:54:53;;;;;;;;;;;6.90;38.00;;;;;;10351987;28;86069;-48
2022/03/29 06:59:54;;;;;;;;;;;6.90;39.70;;;;;;10370290;28;84875;-51
2022/03/29 07:04:55;;;;;;;;;;;7.00;31.30;;;;;;10372896;28;84042;-51
2022/03/29 07:15:16;;;;;;;;;;;7.00;1.00;;;;;;10373115;28;84079;-49
2022/03/29 07:20:16;;;;;;;;;;;7.10;1.00;;;;;;10372700;28;84156;-48
2022/03/29 07:25:18;;;;;;;;;;;7.20;1.00;;;;;;10357997;28;86008;-49
2022/03/29 07:30:18;;;;;;;;;;;7.30;1.00;;;;;;10375556;28;84973;-49
2022/03/29 07:35:20;;;;;;;;;;;7.20;1.00;;;;;;10376076;28;87519;-48
2022/03/29 07:40:22;;;;;;;;;;;7.20;1.00;;;;;;10376021;28;84401;-47
2022/03/29 07:45:22;;;;;;;;;;;7.30;1.00;;;;;;10374081;28;84107;-51
2022/03/29 07:50:24;;;;;;;;;;;7.40;1.00;;;;;;10376139;28;84150;-49
2022/03/29 07:55:25;;;;;;;;;;;7.50;1.00;;;;;;10375324;28;84892;-47
2022/03/29 08:00:32;;;;;;;;;;;7.50;1.00;;;;;;10375824;28;84936;-48
2022/03/29 08:05:35;;;;;;;;;;;7.50;1.00;;;;;;10373423;28;84090;-48
2022/03/29 08:10:36;;;;;;;;;;;7.50;1.00;;;;;;10376336;28;84928;-48
2022/03/29 08:15:37;;;;;;;;;;;7.70;1.00;;;;;;10374076;28;85372;-52
2022/03/29 08:20:38;;;;;;;;;;;7.90;1.00;;;;;;10357468;28;84341;-49
2022/03/29 08:25:39;;;;;;;;;;;8.00;1.00;;;;;;10372491;28;84863;-48
2022/03/29 08:30:40;;;;;;;;;;;8.00;1.00;;;;;;10374095;28;84107;-48
2022/03/29 08:35:44;;;;;;;;;;;8.10;1.00;;;;;;10373076;28;84100;-49
2022/03/29 08:40:46;;;;;;;;;;;8.30;1.00;;;;;;10373156;28;84857;-48
2022/03/29 08:45:47;;;;;;;;;;;8.50;1.00;;;;;;10354391;28;84980;-48
2022/03/29 08:50:49;;;;;;;;;;;8.60;1.00;;;;;;10373385;28;84871;-48
2022/03/29 08:55:50;;;;;;;;;;;8.80;1.00;;;;;;10354030;28;85855;-48
2022/03/29 09:00:51;;;;;;;;;;;8.80;1.00;;;;;;10355326;28;84820;-51
2022/03/29 09:06:04;;;;;;;;;;;8.90;1.00;;;;;;10373868;28;85052;-48
2022/03/29 09:11:04;;;;;;;;;;;9.10;1.00;;;;;;10374325;28;84903;-47
2022/03/29 09:16:09;;;;;;;;;;;9.10;1.00;;;;;;10356180;28;84086;-51
2022/03/29 09:21:14;;;;;;;;;;;9.10;1.00;;;;;;10375772;28;84351;-51
2022/03/29 09:26:27;;;;;;;;;;;9.20;1.00;;;;;;10373520;28;86516;-49
2022/03/29 09:31:28;;;;;;;;;;;9.40;1.00;;;;;;10374051;28;84947;-52
2022/03/29 09:36:38;;;;;;;;;;;9.70;1.00;;;;;;10371535;28;84901;-50
2022/03/29 09:41:39;;;;;;;;;;;9.50;99.90;;;;;;10352895;28;84063;-47
2022/03/29 09:47:04;;;;;;;;;;;10.20;99.90;;;;;;10352281;28;85742;-47
2022/03/29 09:52:14;;;;;;;;;;;10.70;99.90;;;;;;10371732;28;84878;-50
2022/03/29 09:57:14;;;;;;;;;;;11.20;1.00;;;;;;10369916;28;84057;-50
2022/03/29 10:02:15;;;;;;;;;;;11.20;1.00;;;;;;10352370;28;86167;-48
2022/03/29 10:07:16;;;;;;;;;;;11.20;1.00;;;;;;10352259;28;87021;-47
2022/03/29 10:12:19;;;;;;;;;;;11.20;1.00;;;;;;10352754;28;86045;-49
2022/03/29 10:17:20;;;;;;;;;;;11.60;1.00;;;;;;10352278;28;87212;-47
2022/03/29 10:22:21;;;;;;;;;;;11.80;1.00;;;;;;10352368;28;85636;-48
2022/03/29 10:27:22;;;;;;;;;;;11.90;1.00;;;;;;10369551;28;84143;-47
2022/03/29 10:32:29;;;;;;;;;;;12.80;1.00;;;;;;10370869;28;84092;-49
2022/03/29 10:37:32;;;;;;;;;;;14.10;91.50;;;;;;10368670;28;84248;-52
2022/03/29 10:42:47;;;;;;;;;;;15.40;99.90;;;;;;10369906;28;86049;-48
2022/03/29 10:48:02;;;;;;;;;;;15.10;1.00;;;;;;10369054;28;84888;-48
2022/03/29 10:53:20;;;;;;;;;;;16.00;95.70;;;;;;10351534;28;87370;-51
2022/03/29 10:58:21;;;;;;;;;;;15.50;99.90;;;;;;10369056;28;85151;-51
2022/03/29 11:03:22;;;;;;;;;;;15.50;1.00;;;;;;10370335;28;84829;-48
2022/03/29 11:08:22;;;;;;;;;;;15.00;1.00;;;;;;10350230;28;86504;-49
2022/03/29 11:13:27;;;;;;;;;;;14.90;16.70;;;;;;10369044;28;84188;-47
2022/03/29 11:18:31;;;;;;;;;;;15.40;1.00;;;;;;10368677;28;84357;-47
2022/03/29 11:23:34;;;;;;;;;;;16.40;99.90;;;;;;10368668;28;84177;-50
2022/03/29 11:28:35;;;;;;;;;;;16.20;1.00;;;;;;10367758;28;84738;-50
2022/03/29 11:33:35;;;;;;;;;;;16.70;99.90;;;;;;10369263;28;84113;-50
2022/03/29 11:38:36;;;;;;;;;;;17.30;1.00;;;;;;10367542;28;83996;-50
2022/03/29 11:43:37;;;;;;;;;;;17.40;1.00;;;;;;10367891;28;84263;-50
2022/03/29 11:48:46;;;;;;;;;;;17.60;99.90;;;;;;10367015;28;84810;-52
2022/03/29 11:53:55;;;;;;;;;;;17.70;1.00;;;;;;10350059;28;84798;-50
2022/03/29 11:58:56;;;;;;;;;;;17.10;1.00;;;;;;10365976;28;84769;-48
2022/03/29 12:03:59;;;;;;;;;;;17.30;1.00;;;;;;10366545;28;84084;-49
2022/03/29 12:09:12;;;;;;;;;;;17.70;1.00;;;;;;10371774;28;84063;-49
2022/03/29 12:14:14;;;;;;;;;;;17.70;1.00;;;;;;10373373;28;84358;-49
2022/03/29 12:19:14;;;;;;;;;;;17.40;1.00;;;;;;10371717;28;85148;-49
2022/03/29 12:24:16;;;;;;;;;;;17.20;1.00;;;;;;10375390;28;84244;-46
2022/03/29 12:29:19;;;;;;;;;;;16.80;1.00;;;;;;10388853;22;84950;-51
2022/03/29 12:34:24;;;;;;;;;;;16.90;1.00;;;;;;10375307;28;84238;-54
2022/03/29 12:39:31;;;;;;;;;;;17.60;1.00;;;;;;10374337;28;85016;-50
2022/03/29 12:44:37;;;;;;;;;;;17.80;99.90;;;;;;10339854;28;86305;-48
2022/03/29 12:49:38;;;;;;;;;;;17.20;95.30;;;;;;10372715;28;86278;-46
2022/03/29 12:54:39;;;;;;;;;;;16.80;99.90;;;;;;10373562;28;84854;-54
2022/03/29 12:59:41;;;;;;;;;;;17.10;99.90;;;;;;10373242;28;84129;-48
2022/03/29 13:04:48;;;;;;;;;;;17.00;99.90;;;;;;10354809;28;84916;-51
2022/03/29 13:10:00;;;;;;;;;;;17.40;34.70;;;;;;10372669;28;85002;-47
2022/03/29 13:15:01;;;;;;;;;;;18.20;1.00;;;;;;10372020;28;85067;-47
2022/03/29 13:20:02;;;;;;;;;;;18.90;1.00;;;;;;10352373;28;84151;-48
2022/03/29 13:25:03;;;;;;;;;;;18.70;1.00;;;;;;10365545;28;85066;-52
2022/03/29 13:30:04;;;;;;;;;;;19.50;1.00;;;;;;10366466;28;84699;-43
2022/03/29 13:35:06;;;;;;;;;;;19.20;99.90;;;;;;10348327;28;86300;-48
2022/03/29 13:40:09;;;;;;;;;;;19.40;99.90;;;;;;10347776;28;84898;-47
2022/03/29 13:45:10;;;;;;;;;;;19.00;99.90;;;;;;10342031;28;84128;-47
2022/03/29 13:50:10;;;;;;;;;;;18.80;99.90;;;;;;10330484;28;84995;-46
2022/03/29 13:55:11;;;;;;;;;;;19.10;99.90;;;;;;10362502;28;85897;-48
2022/03/29 14:00:12;;;;;;;;;;;19.30;99.90;;;;;;10369102;28;84818;-48
2022/03/29 14:05:15;;;;;;;;;;;19.40;99.90;;;;;;10360941;28;84600;-45
2022/03/29 14:10:16;;;;;;;;;;;19.20;99.90;;;;;;10351844;28;86157;-47
2022/03/29 14:15:16;;;;;;;;;;;18.90;9.10;;;;;;10369591;28;84218;-46
2022/03/29 14:20:17;;;;;;;;;;;18.70;99.90;;;;;;10340824;28;86970;-46
2022/03/29 14:25:18;;;;;;;;;;;18.80;1.00;;;;;;10398403;28;84297;-52
2022/03/29 14:30:19;;;;;;;;;;;18.80;34.70;;;;;;10403445;28;84790;-51
2022/03/29 14:35:19;;;;;;;;;;;18.50;1.00;;;;;;10378629;28;84877;-47
2022/03/29 14:40:20;;;;;;;;;;;18.60;1.00;;;;;;10373986;28;85324;-48
2022/03/29 14:45:21;;;;;;;;;;;19.00;1.00;;;;;;10367312;28;84342;-48
2022/03/29 14:50:22;;;;;;;;;;;18.40;1.00;;;;;;10366748;28;84896;-53
2022/03/29 14:55:24;;;;;;;;;;;18.00;1.00;;;;;;10367249;28;84675;-46
2022/03/29 15:00:24;;;;;;;;;;;17.80;1.00;;;;;;10372346;28;84205;-48
2022/03/29 15:05:25;;;;;;;;;;;17.30;1.00;;;;;;10355316;28;84840;-48
2022/03/29 15:10:26;;;;;;;;;;;16.90;1.00;;;;;;10360119;28;85394;-52
2022/03/29 15:15:28;;;;;;;;;;;16.50;1.00;;;;;;10363394;28;84882;-47
2022/03/29 15:20:28;;;;;;;;;;;15.90;1.00;;;;;;10363600;28;87013;-51
2022/03/29 15:25:29;;;;;;;;;;;15.60;1.00;;;;;;10357745;28;84964;-49
2022/03/29 15:30:30;;;;;;;;;;;15.50;1.00;;;;;;10362527;28;85457;-47
2022/03/29 15:35:30;;;;;;;;;;;15.20;1.00;;;;;;10329117;28;84838;-58
2022/03/29 15:40:33;;;;;;;;;;;15.00;1.00;;;;;;10405468;28;85060;-52
2022/03/29 15:45:34;;;;;;;;;;;15.00;1.00;;;;;;10416598;28;84668;-52
2022/03/29 15:50:35;;;;;;;;;;;14.70;31.10;;;;;;10387773;28;85127;-54
2022/03/29 15:55:36;;;;;;;;;;;14.60;99.90;;;;;;10382763;28;85544;-47
2022/03/29 16:00:37;;;;;;;;;;;14.50;99.90;;;;;;10374825;28;84621;-50
2022/03/29 16:05:39;;;;;;;;;;;14.50;92.60;;;;;;10354142;28;84195;-46
2022/03/29 16:10:39;;;;;;;;;;;14.30;1.00;;;;;;10356629;28;84091;-50
2022/03/29 16:15:40;;;;;;;;;;;14.20;1.00;;;;;;10401868;28;84939;-58
2022/03/29 16:20:41;;;;;;;;;;;14.00;1.00;;;;;;10405808;28;85249;-47
2022/03/29 16:25:43;;;;;;;;;;;14.00;1.00;;;;;;10376816;28;86978;-50
2022/03/29 16:30:43;;;;;;;;;;;13.90;1.00;;;;;;10415311;28;84417;-48
2022/03/29 16:35:44;;;;;;;;;;;13.80;1.00;;;;;;10414220;28;85081;-47
2022/03/29 16:40:45;;;;;;;;;;;13.60;1.00;;;;;;10415615;28;84127;-50
2022/03/29 16:45:46;;;;;;;;;;;13.60;1.00;;;;;;10396311;28;85828;-48
2022/03/29 16:50:47;;;;;;;;;;;13.60;1.00;;;;;;10414537;28;86672;-44
2022/03/29 16:55:48;;;;;;;;;;;13.50;23.90;;;;;;10414923;28;85070;-49
2022/03/29 17:00:49;;;;;;;;;;;13.40;99.90;;;;;;10415259;28;84895;-48
2022/03/29 17:05:49;;;;;;;;;;;13.40;99.90;;;;;;10413325;28;84949;-49
2022/03/29 17:10:50;;;;;;;;;;;13.20;99.90;;;;;;10414460;28;84168;-52
2022/03/29 17:15:51;;;;;;;;;;;13.10;99.90;;;;;;10413912;28;84784;-47
2022/03/29 17:20:52;;;;;;;;;;;13.00;99.90;;;;;;10413765;28;85017;-47
2022/03/29 17:25:53;;;;;;;;;;;12.80;1.00;;;;;;10411916;28;84221;-54
2022/03/29 17:30:54;;;;;;;;;;;12.70;1.00;;;;;;10395630;28;84147;-50
2022/03/29 17:35:54;;;;;;;;;;;12.60;1.00;;;;;;10410489;28;84764;-48
2022/03/29 17:40:55;;;;;;;;;;;12.60;1.00;;;;;;10412869;28;84035;-52
2022/03/29 17:45:57;;;;;;;;;;;12.40;99.90;;;;;;10412463;28;84116;-50
2022/03/29 17:50:59;;;;;;;;;;;12.30;1.00;;;;;;10412990;28;84562;-47
2022/03/29 17:56:03;;;;;;;;;;;12.20;1.00;;;;;;10411566;28;84722;-52
2022/03/29 18:01:04;;;;;;;;;;;12.10;1.00;;;;;;10412895;28;84865;-46
2022/03/29 18:06:05;;;;;;;;;;;12.00;99.90;;;;;;10392669;28;85974;-48
2022/03/29 18:11:05;;;;;;;;;;;11.90;99.90;;;;;;10412520;28;83988;-52
2022/03/29 18:16:08;;;;;;;;;;;11.70;1.00;;;;;;10411064;28;85170;-48
2022/03/29 18:21:09;;;;;;;;;;;11.60;99.90;;;;;;10377681;28;85760;-48
2022/03/29 18:26:10;;;;;;;;;;;11.50;99.90;;;;;;10418077;22;84960;-48
2022/03/29 18:31:11;;;;;;;;;;;11.40;1.00;;;;;;10371045;28;84873;-47
2022/03/29 18:36:13;;;;;;;;;;;11.20;1.00;;;;;;10368196;28;84886;-47
2022/03/29 18:41:13;;;;;;;;;;;11.10;99.90;;;;;;10371182;28;84738;-49
2022/03/29 18:46:14;;;;;;;;;;;10.90;1.00;;;;;;10351858;28;86646;-47
2022/03/29 18:51:15;;;;;;;;;;;10.90;23.90;;;;;;10370717;28;84942;-50
2022/03/29 18:56:17;;;;;;;;;;;10.80;99.90;;;;;;10351440;28;86155;-48
2022/03/29 19:01:18;;;;;;;;;;;10.70;1.00;;;;;;10370310;28;84111;-46
2022/03/29 19:06:18;;;;;;;;;;;10.70;1.00;;;;;;10369198;28;84823;-48
2022/03/29 19:11:19;;;;;;;;;;;10.50;1.00;;;;;;10370402;28;84470;-48
2022/03/29 19:16:21;;;;;;;;;;;10.50;1.00;;;;;;10351621;28;84107;-47
2022/03/29 19:21:22;;;;;;;;;;;10.40;1.00;;;;;;10364751;28;84912;-50
2022/03/29 19:26:24;;;;;;;;;;;10.20;99.90;;;;;;10366740;28;87047;-48
2022/03/29 19:31:25;;;;;;;;;;;10.10;99.90;;;;;;10387874;28;84900;-56
2022/03/29 19:36:28;;;;;;;;;;;10.00;99.90;;;;;;10373389;28;84545;-58
2022/03/29 19:41:28;;;;;;;;;;;9.80;1.00;;;;;;10336806;28;84890;-47
2022/03/29 19:46:29;;;;;;;;;;;9.70;1.00;;;;;;10375977;28;84996;-49
2022/03/29 19:52:09;;;;;;;;;;;9.70;1.00;;;;;;10350894;28;84373;-49
2022/03/29 19:57:09;;;;;;;;;;;9.60;1.00;;;;;;10365244;28;84215;-48
2022/03/29 20:02:11;;;;;;;;;;;9.50;1.00;;;;;;10348856;28;84307;-48
2022/03/29 20:07:12;;;;;;;;;;;9.40;1.00;;;;;;10366237;28;84921;-48
2022/03/29 20:12:13;;;;;;;;;;;9.30;1.00;;;;;;10348043;28;85474;-48
2022/03/29 20:17:13;;;;;;;;;;;9.30;1.00;;;;;;10344434;28;84399;-49
2022/03/29 20:22:14;;;;;;;;;;;9.20;1.00;;;;;;10357178;28;87142;-48
2022/03/29 20:27:14;;;;;;;;;;;9.10;1.00;;;;;;10363553;28;84885;-47
2022/03/29 20:32:16;;;;;;;;;;;8.90;1.00;;;;;;10349411;28;85132;-46
2022/03/29 20:37:20;;;;;;;;;;;8.90;1.00;;;;;;10357996;28;85703;-48
2022/03/29 20:42:21;;;;;;;;;;;8.80;1.00;;;;;;10354303;28;85038;-49
2022/03/29 20:47:21;;;;;;;;;;;8.70;1.00;;;;;;10297930;28;87123;-47
2022/03/29 20:52:22;;;;;;;;;;;8.70;1.00;;;;;;10362711;28;85507;-49
2022/03/29 20:57:22;;;;;;;;;;;8.70;1.00;;;;;;10355919;28;84827;-49
2022/03/29 21:02:23;;;;;;;;;;;8.60;89.80;;;;;;10343735;28;85828;-46
2022/03/29 21:07:23;;;;;;;;;;;8.50;99.90;;;;;;10351451;28;85919;-46
2022/03/29 21:12:24;;;;;;;;;;;8.50;50.80;;;;;;10373152;28;84999;-47
2022/03/29 21:17:25;;;;;;;;;;;8.40;99.90;;;;;;10376674;28;84263;-47
2022/03/29 21:22:25;;;;;;;;;;;8.30;99.90;;;;;;10373045;28;84018;-47
2022/03/29 21:28:01;;;;;;;;;;;8.20;99.90;;;;;;10364442;28;84722;-49
2022/03/29 21:33:02;;;;;;;;;;;8.10;99.90;;;;;;10354456;28;84250;-48
2022/03/29 21:38:02;;;;;;;;;;;8.10;99.90;;;;;;10370124;28;85354;-46
2022/03/29 21:43:03;;;;;;;;;;;8.00;99.90;;;;;;10372139;28;84103;-47
2022/03/29 21:48:04;;;;;;;;;;;8.10;99.90;;;;;;10371162;28;86278;-48
2022/03/29 21:53:06;;;;;;;;;;;8.00;99.90;;;;;;10372883;28;84104;-49
2022/03/29 21:58:25;;;;;;;;;;;7.90;99.90;;;;;;10371737;28;85055;-48
2022/03/29 22:03:44;;;;;;;;;;;7.90;99.90;;;;;;10372482;28;84110;-46
2022/03/29 22:09:03;;;;;;;;;;;7.80;99.90;;;;;;10369668;28;84426;-49
2022/03/29 22:14:04;;;;;;;;;;;7.70;99.90;;;;;;10371274;28;84122;-46
2022/03/29 22:19:06;;;;;;;;;;;7.60;99.90;;;;;;10351522;28;84996;-48
2022/03/29 22:24:07;;;;;;;;;;;7.50;1.00;;;;;;10370661;28;85211;-46
2022/03/29 22:29:07;;;;;;;;;;;7.50;1.00;;;;;;10350939;28;90920;-46
2022/03/29 22:34:08;;;;;;;;;;;7.40;1.00;;;;;;10352552;28;84178;-47
2022/03/29 22:39:08;;;;;;;;;;;7.30;1.00;;;;;;10365600;28;84258;-46
2022/03/29 22:44:09;;;;;;;;;;;7.30;1.00;;;;;;10368910;28;85088;-46
2022/03/29 22:49:11;;;;;;;;;;;7.10;1.00;;;;;;10367814;28;84162;-47
2022/03/29 22:54:11;;;;;;;;;;;7.10;1.00;;;;;;10370066;28;84799;-47
2022/03/29 22:59:12;;;;;;;;;;;7.10;1.00;;;;;;10350376;28;84785;-51
2022/03/29 23:04:12;;;;;;;;;;;7.00;1.00;;;;;;10369051;28;84091;-47
2022/03/29 23:09:13;;;;;;;;;;;6.80;1.00;;;;;;10367207;28;84876;-49
2022/03/29 23:14:13;;;;;;;;;;;6.80;1.00;;;;;;10351098;28;84153;-47
2022/03/29 23:19:14;;;;;;;;;;;6.70;1.00;;;;;;10367964;28;85035;-47
2022/03/29 23:24:15;;;;;;;;;;;6.80;1.00;;;;;;10368229;28;84353;-49
2022/03/29 23:29:16;;;;;;;;;;;6.70;1.00;;;;;;10349080;28;85070;-47
2022/03/29 23:34:16;;;;;;;;;;;6.70;1.00;;;;;;10368674;28;84090;-50
2022/03/29 23:39:17;;;;;;;;;;;6.60;1.00;;;;;;10346515;28;84967;-47
2022/03/29 23:44:18;;;;;;;;;;;6.60;1.00;;;;;;10366738;28;84635;-47
2022/03/29 23:49:18;;;;;;;;;;;6.50;1.00;;;;;;10364388;28;86884;-46
2022/03/29 23:54:19;;;;;;;;;;;6.50;1.00;;;;;;10367099;28;85060;-49
2022/03/29 23:59:20;;;;;;;;;;;6.40;1.00;;;;;;10365751;28;84013;-45
